Lenox, Massachusetts
Current Conditions -  °F | °C
As of 3:54 PM on Thursday 27 Nov 2014 (Local Time) from KPSF Reporting Station
Overcast Overcast  
Wind Chill: 22°   Ceiling: 7000
Heat Index: 27°   Visibility: 10mi
Dew Point: 23°   Wind: 5mph
Humidity: 85%   Direction: 310°NW
Pressure: 29.93"   Gusts: NA
Location:  42.36°N, 73.28°W
Report Text: KPSF 272054Z AUTO 31004KT 10SM BKN070 OVC090 M03/M05 A2993 RMK AO2 SLP148 T10281050 53004
Loading
Personal Weather Stations






























Interactive Weather Map New forecast layout! Learn more

10-Day Weather Forecast

Advertisements
Track Severe Weather on mobile